createdAt,value
2018-12-20T00:01:49.793Z,100291.66
2018-12-20T00:05:53.296Z,100276.16
2018-12-20T00:09:56.851Z,100272.02
2018-12-20T00:14:00.378Z,100274.09
2018-12-20T00:18:05.136Z,100275.10
2018-12-20T00:22:09.006Z,100267.95
2018-12-20T00:26:12.546Z,100269.38
2018-12-20T00:30:16.010Z,100272.94
2018-12-20T00:34:19.445Z,100269.66
2018-12-20T00:38:22.953Z,100268.78
2018-12-20T00:42:32.969Z,100273.03
2018-12-20T00:46:36.407Z,100281.28
2018-12-20T00:50:39.899Z,100279.06
2018-12-20T00:54:43.479Z,100273.58
2018-12-20T00:58:46.951Z,100274.69
2018-12-20T01:02:55.195Z,100272.11
2018-12-20T01:06:55.967Z,100278.56
2018-12-20T01:10:59.480Z,100284.37
2018-12-20T01:15:03.003Z,100283.78
2018-12-20T01:19:06.550Z,100296.79
2018-12-20T01:23:10.221Z,100291.48
2018-12-20T01:27:13.751Z,100282.77
2018-12-20T01:31:17.200Z,100280.17
2018-12-20T01:35:20.667Z,100268.88
2018-12-20T01:39:24.300Z,100267.77
2018-12-20T01:43:27.964Z,100290.52
2018-12-20T01:47:31.538Z,100289.83
2018-12-20T01:51:35.259Z,100297.58
2018-12-20T01:55:38.767Z,100302.02
2018-12-20T01:59:42.327Z,100296.70
2018-12-20T02:03:45.804Z,100297.98
2018-12-20T02:07:49.380Z,100304.54
2018-12-20T02:11:52.875Z,100302.02
2018-12-20T02:15:56.452Z,100291.53
2018-12-20T02:20:00.193Z,100290.52
2018-12-20T02:24:04.522Z,100286.50
2018-12-20T02:28:08.158Z,100290.70
2018-12-20T02:32:11.883Z,100296.33
2018-12-20T02:36:15.425Z,100297.08
2018-12-20T02:40:19.030Z,100289.03
2018-12-20T02:44:22.707Z,100301.59
2018-12-20T02:48:26.359Z,100301.41
2018-12-20T02:52:30.166Z,100295.86
2018-12-20T02:56:33.894Z,100299.46
2018-12-20T03:00:37.403Z,100301.30
2018-12-20T03:04:40.983Z,100304.81
2018-12-20T03:08:44.667Z,100307.08
2018-12-20T03:12:48.641Z,100310.11
2018-12-20T03:16:52.323Z,100312.19
2018-12-20T03:20:55.895Z,100312.82
2018-12-20T03:24:59.594Z,100305.74
2018-12-20T03:29:03.277Z,100311.22
2018-12-20T03:33:07.035Z,100314.03
2018-12-20T03:37:12.340Z,100322.47
2018-12-20T03:41:15.975Z,100319.13
2018-12-20T03:45:19.794Z,100320.73
2018-12-20T03:49:23.556Z,100329.58
2018-12-20T03:53:27.198Z,100327.78
2018-12-20T03:57:30.719Z,100316.27
2018-12-20T04:01:34.261Z,100330.75
2018-12-20T04:05:37.964Z,100335.03
2018-12-20T04:09:41.502Z,100343.66
2018-12-20T04:13:45.967Z,100333.02
2018-12-20T04:17:49.465Z,100343.15
2018-12-20T04:21:53.121Z,100344.28
2018-12-20T04:25:57.013Z,100358.55
2018-12-20T04:30:00.619Z,100371.74
2018-12-20T04:34:04.657Z,100370.55
2018-12-20T04:38:08.128Z,100374.33
2018-12-20T04:42:11.533Z,100367.20
2018-12-20T04:46:15.006Z,100364.12
2018-12-20T04:50:18.548Z,100353.98
2018-12-20T04:54:22.191Z,100361.85
2018-12-20T04:58:25.781Z,100345.38
2018-12-20T05:02:29.400Z,100351.42
2018-12-20T05:06:32.876Z,100356.91
2018-12-20T05:10:36.402Z,100352.94
2018-12-20T05:14:39.998Z,100361.19
2018-12-20T05:18:43.589Z,100358.82
2018-12-20T05:22:47.154Z,100366.63
2018-12-20T05:26:50.717Z,100361.20
2018-12-20T05:30:54.328Z,100359.31
2018-12-20T05:34:58.272Z,100373.94
2018-12-20T05:39:01.737Z,100376.53
2018-12-20T05:43:05.228Z,100388.86
2018-12-20T05:47:08.943Z,100391.91
2018-12-20T05:51:12.459Z,100390.41
2018-12-20T05:55:16.002Z,100398.97
2018-12-20T05:59:19.539Z,100407.99
2018-12-20T06:03:23.100Z,100413.05
2018-12-20T06:07:26.790Z,100420.06
2018-12-20T06:11:30.390Z,100413.20
2018-12-20T06:15:34.521Z,100419.66
2018-12-20T06:19:38.154Z,100416.60
2018-12-20T06:23:41.739Z,100413.05
2018-12-20T06:27:45.202Z,100421.26
2018-12-20T06:31:48.673Z,100422.17
2018-12-20T06:35:52.131Z,100428.64
2018-12-20T06:39:55.703Z,100435.56
2018-12-20T06:44:07.012Z,100438.23
2018-12-20T06:48:04.623Z,100441.48
2018-12-20T06:52:08.119Z,100447.06
2018-12-20T06:56:11.662Z,100444.28
2018-12-20T07:00:15.097Z,100437.92
2018-12-20T07:04:18.680Z,100434.88
2018-12-20T07:08:22.179Z,100428.52
2018-12-20T07:12:25.611Z,100427.60
2018-12-20T07:16:29.607Z,100443.80
2018-12-20T07:20:33.282Z,100448.64
2018-12-20T07:24:37.105Z,100449.83
2018-12-20T07:28:40.613Z,100455.77
2018-12-20T07:32:44.068Z,100464.22
2018-12-20T07:36:47.592Z,100453.68
2018-12-20T07:40:51.124Z,100470.53
2018-12-20T07:44:54.581Z,100467.58
2018-12-20T07:48:58.094Z,100464.89
2018-12-20T07:53:02.307Z,100457.81
2018-12-20T07:57:05.809Z,100460.28
2018-12-20T08:01:09.375Z,100461.77
2018-12-20T08:05:12.822Z,100467.72
2018-12-20T08:09:16.232Z,100468.89
2018-12-20T08:13:19.790Z,100467.50
2018-12-20T08:17:23.301Z,100469.20
2018-12-20T08:21:26.775Z,100467.34
2018-12-20T08:25:30.805Z,100472.30
2018-12-20T08:29:35.145Z,100472.97
2018-12-20T08:33:38.716Z,100484.66
2018-12-20T08:37:42.747Z,100489.59
2018-12-20T08:41:46.205Z,100485.63
2018-12-20T08:45:49.655Z,100491.58
2018-12-20T08:49:53.217Z,100496.08
2018-12-20T08:53:56.871Z,100504.23
2018-12-20T08:58:00.335Z,100509.09
2018-12-20T09:02:03.783Z,100501.24
2018-12-20T09:06:07.254Z,100506.72
2018-12-20T09:10:10.811Z,100512.14
2018-12-20T09:14:16.184Z,100503.20
2018-12-20T09:18:19.940Z,100505.57
2018-12-20T09:22:23.402Z,100514.81
2018-12-20T09:26:26.948Z,100505.55
2018-12-20T09:30:30.946Z,100485.73
2018-12-20T09:34:34.428Z,100483.46
2018-12-20T09:38:38.008Z,100482.08
2018-12-20T09:42:41.486Z,100488.53
2018-12-20T09:46:45.000Z,100482.27
2018-12-20T09:50:48.477Z,100479.97
2018-12-20T09:54:51.932Z,100470.61
2018-12-20T09:58:55.524Z,100471.99
2018-12-20T10:02:59.026Z,100459.41
2018-12-20T10:07:02.517Z,100454.31
2018-12-20T10:11:05.935Z,100452.42
2018-12-20T10:15:09.485Z,100448.54
2018-12-20T10:19:13.704Z,100452.95
2018-12-20T10:23:17.238Z,100445.80
2018-12-20T10:27:20.695Z,100440.22
2018-12-20T10:31:24.165Z,100438.28
2018-12-20T10:35:27.614Z,100446.00
2018-12-20T10:39:31.239Z,100436.95
2018-12-20T10:43:34.720Z,100434.83
2018-12-20T10:47:38.128Z,100437.42
2018-12-20T10:51:41.609Z,100430.81
2018-12-20T10:55:45.151Z,100423.30
2018-12-20T10:59:48.856Z,100423.07
2018-12-20T11:03:56.558Z,100418.27
2018-12-20T11:08:04.172Z,100420.06
2018-12-20T11:12:08.655Z,100420.98
2018-12-20T11:16:12.083Z,100419.59
2018-12-20T11:20:15.546Z,100416.31
2018-12-20T11:24:19.035Z,100418.16
2018-12-20T11:28:22.540Z,100410.34
2018-12-20T11:32:26.075Z,100419.81
2018-12-20T11:36:29.554Z,100424.81
2018-12-20T11:40:33.103Z,100421.40
2018-12-20T11:44:36.853Z,100424.22
2018-12-20T11:48:40.339Z,100426.25
2018-12-20T11:52:43.798Z,100423.95
2018-12-20T11:56:47.274Z,100418.30
2018-12-20T12:00:50.735Z,100420.06
2018-12-20T12:04:54.265Z,100419.78
2018-12-20T12:08:57.884Z,100418.48
2018-12-20T12:13:01.539Z,100426.84
2018-12-20T12:17:05.198Z,100426.25
2018-12-20T12:21:08.870Z,100432.86
2018-12-20T12:25:12.581Z,100430.83
2018-12-20T12:29:16.218Z,100427.17
2018-12-20T12:33:19.812Z,100432.17
2018-12-20T12:37:23.438Z,100450.03
2018-12-20T12:41:27.151Z,100445.56
2018-12-20T12:45:30.866Z,100445.23
2018-12-20T12:49:34.675Z,100452.58
2018-12-20T12:53:38.217Z,100451.84
2018-12-20T12:57:41.669Z,100447.27
2018-12-20T13:01:45.162Z,100452.39
2018-12-20T13:05:48.750Z,100455.07
2018-12-20T13:09:52.291Z,100450.59
2018-12-20T13:13:55.829Z,100448.42
2018-12-20T13:17:59.377Z,100441.31
2018-12-20T13:22:04.084Z,100453.45
2018-12-20T13:26:07.617Z,100444.41
2018-12-20T13:30:12.432Z,100449.67
2018-12-20T13:34:15.915Z,100452.25
2018-12-20T13:38:19.348Z,100459.92
2018-12-20T13:42:22.793Z,100463.63
2018-12-20T13:46:26.244Z,100461.73
2018-12-20T13:50:29.704Z,100459.15
2018-12-20T13:54:33.237Z,100461.37
2018-12-20T13:58:37.787Z,100452.77
2018-12-20T14:02:41.373Z,100458.59
2018-12-20T14:06:44.934Z,100462.66
2018-12-20T14:10:48.433Z,100466.36
2018-12-20T14:14:51.948Z,100478.69
2018-12-20T14:18:55.439Z,100481.92
2018-12-20T14:22:58.888Z,100476.78
2018-12-20T14:27:02.347Z,100479.09
2018-12-20T14:31:05.813Z,100474.23
2018-12-20T14:35:09.493Z,100480.06
2018-12-20T14:39:12.981Z,100482.47
2018-12-20T14:43:16.710Z,100491.94
2018-12-20T14:47:20.324Z,100480.76
2018-12-20T14:51:23.824Z,100480.99
2018-12-20T14:55:27.266Z,100485.02
2018-12-20T14:59:32.409Z,100488.73
2018-12-20T15:03:36.161Z,100503.92
2018-12-20T15:07:39.747Z,100508.53
2018-12-20T15:11:43.268Z,100513.21
2018-12-20T15:15:46.741Z,100518.01
2018-12-20T15:19:50.543Z,100527.27
2018-12-20T15:23:54.621Z,100523.98
2018-12-20T15:27:58.352Z,100532.57
2018-12-20T15:32:01.822Z,100529.98
2018-12-20T15:36:05.405Z,100526.23
2018-12-20T15:40:09.637Z,100529.38
2018-12-20T15:44:13.108Z,100539.53
2018-12-20T15:48:17.002Z,100532.47
2018-12-20T15:52:20.760Z,100531.18
2018-12-20T15:56:24.324Z,100549.57
2018-12-20T16:00:27.771Z,100540.15
2018-12-20T16:04:31.249Z,100548.28
2018-12-20T16:08:34.782Z,100553.84
2018-12-20T16:12:38.352Z,100549.66
2018-12-20T16:16:42.055Z,100554.52
2018-12-20T16:20:45.815Z,100555.16
2018-12-20T16:24:49.294Z,100562.55
2018-12-20T16:28:53.057Z,100564.92
2018-12-20T16:32:56.532Z,100574.00
2018-12-20T16:36:59.947Z,100573.59
2018-12-20T16:41:04.521Z,100571.20
2018-12-20T16:45:08.767Z,100579.71
2018-12-20T16:49:13.766Z,100581.20
2018-12-20T16:53:17.632Z,100576.81
2018-12-20T16:57:21.129Z,100568.80
2018-12-20T17:01:24.735Z,100572.80
2018-12-20T17:05:28.553Z,100577.66
2018-12-20T17:09:32.068Z,100581.04
2018-12-20T17:13:35.777Z,100577.85
2018-12-20T17:17:39.686Z,100572.91
2018-12-20T17:21:43.614Z,100579.65
2018-12-20T17:25:47.083Z,100586.72
2018-12-20T17:29:50.548Z,100588.36
2018-12-20T17:33:54.163Z,100580.91
2018-12-20T17:37:57.612Z,100577.62
2018-12-20T17:42:01.087Z,100583.78
2018-12-20T17:46:04.596Z,100579.30
2018-12-20T17:50:08.736Z,100584.66
2018-12-20T17:54:12.264Z,100583.19
2018-12-20T17:58:18.838Z,100578.64
2018-12-20T18:02:22.992Z,100578.45
2018-12-20T18:06:26.701Z,100588.45
2018-12-20T18:10:30.367Z,100580.84
2018-12-20T18:14:34.566Z,100578.91
2018-12-20T18:18:38.101Z,100585.01
2018-12-20T18:22:41.585Z,100583.08
2018-12-20T18:26:45.290Z,100586.73
2018-12-20T18:30:49.193Z,100583.17
2018-12-20T18:34:52.636Z,100584.59
2018-12-20T18:38:56.462Z,100592.92
2018-12-20T18:43:01.767Z,100591.95
2018-12-20T18:47:05.609Z,100587.50
2018-12-20T18:51:09.109Z,100588.42
2018-12-20T18:55:12.626Z,100594.13
2018-12-20T18:59:16.229Z,100593.63
2018-12-20T19:03:19.835Z,100601.98
2018-12-20T19:07:23.512Z,100614.77
2018-12-20T19:11:27.003Z,100620.06
2018-12-20T19:15:30.468Z,100617.34
2018-12-20T19:19:34.148Z,100620.12
2018-12-20T19:23:37.619Z,100625.58
2018-12-20T19:27:41.272Z,100633.02
2018-12-20T19:31:44.961Z,100636.36
2018-12-20T19:35:48.474Z,100643.63
2018-12-20T19:39:56.326Z,100630.02
2018-12-20T19:44:00.064Z,100633.56
2018-12-20T19:48:03.721Z,100621.92
2018-12-20T19:52:07.284Z,100631.11
2018-12-20T19:56:10.785Z,100642.62
2018-12-20T20:00:16.248Z,100638.11
2018-12-20T20:04:19.759Z,100636.68
2018-12-20T20:08:23.328Z,100642.97
2018-12-20T20:12:26.799Z,100655.59
2018-12-20T20:16:30.305Z,100658.38
2018-12-20T20:20:33.911Z,100656.28
2018-12-20T20:24:37.392Z,100658.23
2018-12-20T20:28:40.839Z,100653.85
2018-12-20T20:32:44.378Z,100663.73
2018-12-20T20:36:48.065Z,100667.62
2018-12-20T20:40:51.745Z,100663.42
2018-12-20T20:44:55.253Z,100658.90
2018-12-20T20:48:58.832Z,100654.67
2018-12-20T20:53:02.397Z,100654.80
2018-12-20T20:57:05.940Z,100659.62
2018-12-20T21:01:09.493Z,100656.94
2018-12-20T21:05:13.326Z,100653.85
2018-12-20T21:09:16.872Z,100619.22
2018-12-20T21:13:20.350Z,100641.02
2018-12-20T21:17:23.958Z,100661.53
2018-12-20T21:21:27.716Z,100666.30
2018-12-20T21:25:31.335Z,100665.72
2018-12-20T21:29:35.123Z,100669.73
2018-12-20T21:33:38.999Z,100677.02
2018-12-20T21:37:42.433Z,100677.78
2018-12-20T21:41:45.940Z,100669.89
2018-12-20T21:45:49.425Z,100673.94
2018-12-20T21:49:52.856Z,100669.84
2018-12-20T21:53:56.371Z,100665.38
2018-12-20T21:57:59.848Z,100662.42
2018-12-20T22:02:03.709Z,100658.03
2018-12-20T22:06:07.265Z,100654.68
2018-12-20T22:10:10.772Z,100665.25
2018-12-20T22:14:14.265Z,100652.44
2018-12-20T22:18:17.788Z,100643.70
2018-12-20T22:22:21.574Z,100637.35
2018-12-20T22:26:25.165Z,100643.43
2018-12-20T22:30:28.720Z,100652.08
2018-12-20T22:34:32.230Z,100654.88
2018-12-20T22:38:35.913Z,100652.62
2018-12-20T22:42:39.772Z,100659.92
2018-12-20T22:46:43.296Z,100650.89
2018-12-20T22:50:46.807Z,100657.25
2018-12-20T22:54:50.279Z,100647.53
2018-12-20T22:58:53.791Z,100647.34
2018-12-20T23:02:57.303Z,100654.31
2018-12-20T23:07:00.818Z,100656.70
2018-12-20T23:11:04.340Z,100660.67
2018-12-20T23:15:07.873Z,100658.86
2018-12-20T23:19:11.344Z,100659.33
2018-12-20T23:23:14.820Z,100647.84
2018-12-20T23:27:18.329Z,100643.77
2018-12-20T23:31:21.796Z,100644.08
2018-12-20T23:35:25.365Z,100652.92
2018-12-20T23:39:28.960Z,100660.37
2018-12-20T23:43:32.502Z,100662.64
2018-12-20T23:47:36.111Z,100665.52
2018-12-20T23:51:45.271Z,100671.17
2018-12-20T23:55:45.747Z,100689.66
2018-12-20T23:59:49.286Z,100693.63
